createdAt,value
2024-04-12T00:00:49.158Z,3.67
2024-04-12T00:01:49.258Z,3.53
2024-04-12T00:02:49.334Z,3.40
2024-04-12T00:03:49.486Z,3.27
2024-04-12T00:04:49.288Z,3.15
2024-04-12T00:05:49.352Z,3.11
2024-04-12T00:06:49.355Z,3.13
2024-04-12T00:07:49.429Z,3.15
2024-04-12T00:08:49.517Z,3.34
2024-04-12T00:09:49.825Z,3.35
2024-04-12T00:10:49.660Z,3.32
2024-04-12T00:11:49.754Z,3.32
2024-04-12T00:12:49.727Z,3.30
2024-04-12T00:13:49.742Z,3.48
2024-04-12T00:14:49.819Z,3.18
2024-04-12T00:15:49.800Z,3.07
2024-04-12T00:16:49.779Z,2.97
2024-04-12T00:17:50.072Z,2.95
2024-04-12T00:18:49.810Z,2.87
2024-04-12T00:19:49.829Z,2.75
2024-04-12T00:20:54.920Z,2.79
2024-04-12T00:21:49.856Z,2.79
2024-04-12T00:22:49.886Z,2.81
2024-04-12T00:23:49.897Z,2.80
2024-04-12T00:24:49.876Z,2.83
2024-04-12T00:25:54.894Z,2.84
2024-04-12T00:26:49.944Z,2.80
2024-04-12T00:27:50.534Z,2.82
2024-04-12T00:28:49.881Z,2.86
2024-04-12T00:29:49.895Z,2.91
2024-04-12T00:30:49.914Z,3.01
2024-04-12T00:31:49.872Z,3.00
2024-04-12T00:32:51.056Z,3.09
2024-04-12T00:33:50.041Z,3.02
2024-04-12T00:34:50.382Z,3.03
2024-04-12T00:35:50.057Z,2.85
2024-04-12T00:36:50.067Z,2.68
2024-04-12T00:37:50.104Z,2.56
2024-04-12T00:38:50.177Z,2.62
2024-04-12T00:39:51.209Z,2.81
2024-04-12T00:40:50.193Z,2.88
2024-04-12T00:41:50.249Z,2.86
2024-04-12T00:42:50.240Z,2.84
2024-04-12T00:43:50.277Z,2.88
2024-04-12T00:44:50.363Z,2.98
2024-04-12T00:45:50.387Z,3.04
2024-04-12T00:46:50.413Z,3.43
2024-04-12T00:47:50.543Z,3.76
2024-04-12T00:48:50.592Z,4.30
2024-04-12T00:49:50.794Z,4.81
2024-04-12T00:50:52.941Z,5.17
2024-04-12T00:51:50.639Z,5.19
2024-04-12T00:52:50.596Z,5.26
2024-04-12T00:53:50.666Z,5.09
2024-04-12T00:54:50.600Z,4.69
2024-04-12T00:55:50.640Z,4.45
2024-04-12T00:56:50.653Z,4.01
2024-04-12T00:57:50.673Z,3.68
2024-04-12T00:58:50.634Z,3.50
2024-04-12T00:59:50.654Z,3.44
2024-04-12T01:00:50.667Z,3.17
2024-04-12T01:01:50.632Z,3.22
2024-04-12T01:02:50.998Z,3.23
2024-04-12T01:03:50.904Z,2.95
2024-04-12T01:04:50.626Z,2.80
2024-04-12T01:05:50.690Z,2.66
2024-04-12T01:06:50.629Z,2.55
2024-04-12T01:07:51.771Z,2.43
2024-04-12T01:08:50.642Z,2.37
2024-04-12T01:09:50.644Z,2.30
2024-04-12T01:10:50.699Z,2.24
2024-04-12T01:11:50.669Z,2.27
2024-04-12T01:12:50.643Z,2.24
2024-04-12T01:13:50.634Z,2.41
2024-04-12T01:14:50.726Z,3.08
2024-04-12T01:15:50.656Z,3.97
2024-04-12T01:16:50.659Z,4.31
2024-04-12T01:17:50.676Z,4.67
2024-04-12T01:18:50.752Z,5.27
2024-04-12T01:19:50.714Z,5.30
2024-04-12T01:20:50.791Z,5.30
2024-04-12T01:21:50.832Z,5.21
2024-04-12T01:22:50.879Z,4.95
2024-04-12T01:23:50.962Z,5.07
2024-04-12T01:24:50.993Z,4.84
2024-04-12T01:25:51.028Z,4.81
2024-04-12T01:26:51.153Z,4.47
2024-04-12T01:27:51.115Z,4.32
2024-04-12T01:28:51.182Z,3.84
2024-04-12T01:29:51.267Z,3.48
2024-04-12T01:30:51.264Z,3.30
2024-04-12T01:31:51.275Z,3.27
2024-04-12T01:32:51.395Z,3.11
2024-04-12T01:33:51.396Z,3.03
2024-04-12T01:34:51.408Z,3.12
2024-04-12T01:35:51.501Z,3.28
2024-04-12T01:36:51.644Z,3.55
2024-04-12T01:37:51.616Z,3.77
2024-04-12T01:38:51.739Z,3.90
2024-04-12T01:39:51.620Z,4.00
2024-04-12T01:40:51.640Z,4.05
2024-04-12T01:41:51.743Z,4.14
2024-04-12T01:42:51.717Z,4.17
2024-04-12T01:43:51.729Z,3.57
2024-04-12T01:44:51.837Z,3.12
2024-04-12T01:45:51.847Z,3.00
2024-04-12T01:46:51.904Z,2.81
2024-04-12T01:47:52.034Z,2.85
2024-04-12T01:48:52.141Z,2.75
2024-04-12T01:49:52.081Z,2.70
2024-04-12T01:50:57.236Z,2.69
2024-04-12T01:51:52.140Z,2.69
2024-04-12T01:52:52.129Z,2.70
2024-04-12T01:53:52.187Z,2.70
2024-04-12T01:54:52.155Z,2.73
2024-04-12T01:55:52.546Z,2.79
2024-04-12T01:56:52.237Z,2.89
2024-04-12T01:57:52.146Z,2.93
2024-04-12T01:58:52.144Z,3.04
2024-04-12T01:59:52.191Z,3.09
2024-04-12T02:00:52.210Z,3.21
2024-04-12T02:01:52.254Z,3.26
2024-04-12T02:02:52.395Z,3.32
2024-04-12T02:03:52.416Z,3.45
2024-04-12T02:04:52.334Z,3.34
2024-04-12T02:05:57.421Z,3.38
2024-04-12T02:06:52.339Z,3.39
2024-04-12T02:07:52.339Z,3.42
2024-04-12T02:08:52.376Z,3.43
2024-04-12T02:09:52.355Z,3.31
2024-04-12T02:10:52.363Z,3.15
2024-04-12T02:11:52.409Z,3.17
2024-04-12T02:12:52.351Z,3.28
2024-04-12T02:13:52.388Z,3.33
2024-04-12T02:14:52.513Z,3.37
2024-04-12T02:15:52.505Z,3.30
2024-04-12T02:16:52.716Z,3.28
2024-04-12T02:17:52.656Z,3.20
2024-04-12T02:18:52.703Z,2.87
2024-04-12T02:19:52.696Z,2.66
2024-04-12T02:20:52.808Z,2.53
2024-04-12T02:21:52.751Z,2.56
2024-04-12T02:22:52.793Z,2.65
2024-04-12T02:23:52.859Z,2.76
2024-04-12T02:24:52.914Z,2.87
2024-04-12T02:25:52.937Z,3.12
2024-04-12T02:26:53.051Z,3.40
2024-04-12T02:27:53.025Z,3.73
2024-04-12T02:28:53.073Z,3.82
2024-04-12T02:29:53.208Z,3.42
2024-04-12T02:30:53.192Z,3.26
2024-04-12T02:31:53.307Z,3.25
2024-04-12T02:32:53.410Z,2.92
2024-04-12T02:33:53.374Z,3.06
2024-04-12T02:34:53.359Z,3.08
2024-04-12T02:35:53.404Z,3.07
2024-04-12T02:36:53.462Z,2.98
2024-04-12T02:37:53.474Z,2.71
2024-04-12T02:38:53.551Z,2.59
2024-04-12T02:39:53.588Z,2.52
2024-04-12T02:40:53.656Z,2.43
2024-04-12T02:41:53.800Z,2.35
2024-04-12T02:42:53.752Z,2.33
2024-04-12T02:43:53.976Z,2.30
2024-04-12T02:44:53.920Z,2.30
2024-04-12T02:45:53.911Z,2.30
2024-04-12T02:46:53.903Z,2.47
2024-04-12T02:47:53.972Z,2.49
2024-04-12T02:48:54.175Z,2.61
2024-04-12T02:49:53.990Z,2.67
2024-04-12T02:50:54.235Z,2.75
2024-04-12T02:51:54.053Z,2.76
2024-04-12T02:52:54.090Z,2.78
2024-04-12T02:53:54.149Z,2.81
2024-04-12T02:54:54.156Z,2.97
2024-04-12T02:55:54.214Z,3.09
2024-04-12T02:56:54.308Z,3.09
2024-04-12T02:57:54.279Z,3.16
2024-04-12T02:58:54.958Z,3.42
2024-04-12T02:59:54.364Z,3.43
2024-04-12T03:00:54.405Z,3.45
2024-04-12T03:01:54.401Z,3.46
2024-04-12T03:02:54.488Z,3.31
2024-04-12T03:03:54.461Z,2.72
2024-04-12T03:04:54.526Z,2.60
2024-04-12T03:05:54.450Z,2.47
2024-04-12T03:06:54.480Z,2.49
2024-04-12T03:07:54.509Z,2.53
2024-04-12T03:08:54.545Z,2.47
2024-04-12T03:09:54.568Z,2.41
2024-04-12T03:10:54.559Z,2.32
2024-04-12T03:11:54.605Z,2.34
2024-04-12T03:12:54.594Z,2.34
2024-04-12T03:13:54.639Z,2.33
2024-04-12T03:14:54.708Z,2.27
2024-04-12T03:15:54.775Z,2.22
2024-04-12T03:16:54.836Z,2.24
2024-04-12T03:17:54.862Z,2.21
2024-04-12T03:18:54.879Z,2.31
2024-04-12T03:19:54.837Z,2.33
2024-04-12T03:20:54.909Z,2.36
2024-04-12T03:21:54.949Z,2.43
2024-04-12T03:22:54.998Z,2.50
2024-04-12T03:23:55.043Z,2.46
2024-04-12T03:24:55.043Z,2.57
2024-04-12T03:25:55.097Z,2.74
2024-04-12T03:26:55.150Z,3.06
2024-04-12T03:27:55.090Z,3.06
2024-04-12T03:28:55.122Z,3.07
2024-04-12T03:29:55.173Z,3.14
2024-04-12T03:30:55.237Z,3.22
2024-04-12T03:31:55.252Z,3.29
2024-04-12T03:32:55.305Z,3.36
2024-04-12T03:33:55.240Z,3.52
2024-04-12T03:34:55.241Z,3.59
2024-04-12T03:35:55.335Z,3.71
2024-04-12T03:36:55.319Z,3.66
2024-04-12T03:37:55.328Z,3.75
2024-04-12T03:38:55.365Z,3.90
2024-04-12T03:39:55.379Z,4.00
2024-04-12T03:40:55.377Z,4.16
2024-04-12T03:41:55.428Z,4.26
2024-04-12T03:42:55.393Z,3.97
2024-04-12T03:43:55.410Z,3.72
2024-04-12T03:44:55.424Z,3.83
2024-04-12T03:45:55.478Z,3.61
2024-04-12T03:46:55.487Z,3.47
2024-04-12T03:47:55.774Z,3.59
2024-04-12T03:48:55.584Z,3.74
2024-04-12T03:49:55.558Z,3.77
2024-04-12T03:50:55.665Z,3.74
2024-04-12T03:51:55.754Z,3.72
2024-04-12T03:52:55.707Z,3.54
2024-04-12T03:53:55.781Z,3.44
2024-04-12T03:54:55.813Z,3.35
2024-04-12T03:55:55.843Z,3.27
2024-04-12T03:56:55.868Z,3.20
2024-04-12T03:57:55.871Z,3.26
2024-04-12T03:58:55.908Z,3.55
2024-04-12T03:59:55.974Z,3.69
2024-04-12T04:00:55.998Z,3.57
2024-04-12T04:01:56.030Z,3.53
2024-04-12T04:02:56.063Z,3.37
2024-04-12T04:03:56.149Z,3.16
2024-04-12T04:04:56.160Z,2.92
2024-04-12T04:05:56.200Z,2.82
2024-04-12T04:07:01.310Z,2.85
2024-04-12T04:07:56.248Z,2.85
2024-04-12T04:08:56.329Z,2.87
2024-04-12T04:09:56.264Z,2.89
2024-04-12T04:10:56.284Z,3.01
2024-04-12T04:11:56.262Z,3.10
2024-04-12T04:12:56.259Z,3.06
2024-04-12T04:13:56.268Z,3.08
2024-04-12T04:14:56.297Z,2.95
2024-04-12T04:15:56.272Z,3.05
2024-04-12T04:16:56.266Z,3.17
2024-04-12T04:17:56.462Z,3.19
2024-04-12T04:18:56.368Z,3.12
2024-04-12T04:19:56.271Z,3.18
2024-04-12T04:20:56.346Z,3.13
2024-04-12T04:21:56.364Z,2.96
2024-04-12T04:22:56.414Z,2.99
2024-04-12T04:23:56.504Z,3.16
2024-04-12T04:24:56.578Z,3.22
2024-04-12T04:25:56.910Z,3.15
2024-04-12T04:26:56.664Z,3.22
2024-04-12T04:27:57.632Z,3.52
2024-04-12T04:28:56.717Z,3.82
2024-04-12T04:29:57.089Z,4.50
2024-04-12T04:30:56.827Z,5.10
2024-04-12T04:31:56.931Z,5.32
2024-04-12T04:32:57.022Z,5.31
2024-04-12T04:34:04.295Z,0.50
2024-04-12T04:35:04.280Z,0.50
2024-04-12T04:36:04.332Z,0.50
2024-04-12T04:37:10.882Z,0.50
2024-04-12T04:38:05.339Z,0.50
2024-04-12T04:39:04.327Z,0.50
2024-04-12T04:40:04.309Z,0.50
2024-04-12T04:41:04.297Z,0.50
2024-04-12T04:42:04.336Z,0.50
2024-04-12T04:43:04.311Z,0.51
2024-04-12T04:44:04.298Z,0.53
2024-04-12T04:45:04.463Z,0.53
2024-04-12T04:46:04.321Z,0.59
2024-04-12T04:47:04.313Z,0.56
2024-04-12T04:48:04.439Z,0.54
2024-04-12T04:49:04.634Z,0.54
2024-04-12T04:50:04.328Z,0.54
2024-04-12T04:51:04.411Z,0.51
2024-04-12T04:52:04.350Z,0.53
2024-04-12T04:53:04.401Z,0.52
2024-04-12T04:54:04.486Z,0.52
2024-04-12T04:55:04.497Z,0.50
2024-04-12T04:56:04.480Z,0.50
2024-04-12T04:57:04.689Z,0.51
2024-04-12T04:58:04.590Z,0.52
2024-04-12T04:59:04.609Z,0.52
2024-04-12T05:00:04.668Z,0.52
2024-04-12T05:01:04.724Z,0.51
2024-04-12T05:02:04.725Z,0.51
2024-04-12T05:03:04.811Z,0.51
2024-04-12T05:04:04.849Z,0.50
2024-04-12T05:05:04.783Z,0.57
2024-04-12T05:06:04.824Z,0.58
2024-04-12T05:07:04.854Z,0.60
2024-04-12T05:08:04.904Z,0.61
2024-04-12T05:09:04.977Z,0.59
2024-04-12T05:10:05.027Z,0.54
2024-04-12T05:11:05.034Z,0.53
2024-04-12T05:12:05.123Z,0.53
2024-04-12T05:13:05.157Z,0.56
2024-04-12T05:14:05.931Z,0.59
2024-04-12T05:15:05.285Z,0.56
2024-04-12T05:16:05.267Z,0.55
2024-04-12T05:17:05.347Z,0.54
2024-04-12T05:18:05.803Z,0.55
2024-04-12T05:19:05.492Z,0.54
2024-04-12T05:20:05.467Z,0.54
2024-04-12T05:21:05.594Z,0.55
2024-04-12T05:22:05.556Z,0.58
2024-04-12T05:23:05.554Z,0.58
2024-04-12T05:24:05.616Z,0.62
2024-04-12T05:25:05.667Z,0.64
2024-04-12T05:26:05.728Z,0.66
2024-04-12T05:27:05.839Z,0.67
2024-04-12T05:28:05.779Z,0.67
2024-04-12T05:29:05.837Z,0.70
2024-04-12T05:30:05.937Z,0.66
2024-04-12T05:31:05.869Z,0.64
2024-04-12T05:32:06.025Z,0.62
2024-04-12T05:33:06.104Z,0.65
2024-04-12T05:34:06.022Z,0.66
2024-04-12T05:35:06.009Z,0.66
2024-04-12T05:36:06.111Z,0.69
2024-04-12T05:37:06.014Z,0.71
2024-04-12T05:38:06.058Z,0.72
2024-04-12T05:39:06.152Z,0.74
2024-04-12T05:40:06.171Z,0.78
2024-04-12T05:41:06.905Z,0.77
2024-04-12T05:42:06.394Z,0.76
2024-04-12T05:43:06.275Z,0.75
2024-04-12T05:44:06.296Z,0.71
2024-04-12T05:45:06.372Z,0.68
2024-04-12T05:46:06.391Z,0.61
2024-04-12T05:47:06.390Z,0.60
2024-04-12T05:48:06.493Z,0.57
2024-04-12T05:49:06.439Z,0.52
2024-04-12T05:50:06.522Z,0.50
2024-04-12T05:51:06.479Z,0.50
2024-04-12T05:52:06.508Z,0.51
2024-04-12T05:53:06.485Z,0.50
2024-04-12T05:54:06.559Z,0.50
2024-04-12T05:55:06.531Z,0.52
2024-04-12T05:56:06.553Z,0.53
2024-04-12T05:57:06.588Z,0.59
2024-04-12T05:58:06.619Z,0.63
2024-04-12T05:59:06.639Z,0.67
2024-04-12T06:00:06.709Z,0.67
2024-04-12T06:01:06.705Z,0.66
2024-04-12T06:02:06.752Z,0.72
2024-04-12T06:03:06.775Z,0.68
2024-04-12T06:04:06.785Z,0.67
2024-04-12T06:05:06.741Z,0.65
2024-04-12T06:06:06.876Z,0.60
2024-04-12T06:07:06.769Z,0.60
2024-04-12T06:08:06.775Z,0.61
2024-04-12T06:09:10.302Z,0.62
2024-04-12T06:10:07.813Z,0.62
2024-04-12T06:11:06.786Z,0.62
2024-04-12T06:12:06.974Z,0.61
2024-04-12T06:13:06.811Z,0.63
2024-04-12T06:14:06.834Z,0.66
2024-04-12T06:15:06.819Z,0.63
2024-04-12T06:16:06.881Z,0.66
2024-04-12T06:17:06.815Z,0.67
2024-04-12T06:18:06.931Z,0.62
2024-04-12T06:19:06.829Z,0.60
2024-04-12T06:20:06.818Z,0.60
2024-04-12T06:21:06.914Z,0.63
2024-04-12T06:22:06.829Z,0.63
2024-04-12T06:23:06.919Z,0.63
2024-04-12T06:24:06.998Z,0.63
2024-04-12T06:25:07.007Z,0.64
2024-04-12T06:26:07.102Z,0.63
2024-04-12T06:27:07.146Z,0.61
2024-04-12T06:28:07.095Z,0.62
2024-04-12T06:29:08.595Z,0.64
2024-04-12T06:30:07.192Z,0.64
2024-04-12T06:31:07.191Z,0.64
2024-04-12T06:32:07.228Z,0.64
2024-04-12T06:33:07.298Z,0.63
2024-04-12T06:34:07.312Z,0.62
2024-04-12T06:35:07.155Z,0.60
2024-04-12T06:36:07.540Z,0.62
2024-04-12T06:37:07.495Z,0.59
2024-04-12T06:38:07.340Z,0.62
2024-04-12T06:39:07.366Z,0.60
2024-04-12T06:40:07.160Z,0.60
2024-04-12T06:41:07.175Z,0.60
2024-04-12T06:42:07.398Z,0.61
2024-04-12T06:43:09.744Z,0.62
2024-04-12T06:44:07.151Z,0.63
2024-04-12T06:45:07.331Z,0.62
2024-04-12T06:46:07.184Z,0.63
2024-04-12T06:47:07.490Z,0.64
2024-04-12T06:48:07.191Z,0.66
2024-04-12T06:49:07.189Z,0.67
2024-04-12T06:50:07.172Z,0.68
2024-04-12T06:51:07.443Z,0.67
2024-04-12T06:52:07.181Z,0.67
2024-04-12T06:53:07.318Z,0.67
2024-04-12T06:54:09.360Z,0.65
2024-04-12T06:55:07.319Z,0.67
2024-04-12T06:56:07.194Z,0.63
2024-04-12T06:57:07.222Z,0.61
2024-04-12T06:58:07.206Z,0.58
2024-04-12T06:59:07.200Z,0.58
2024-04-12T07:00:07.281Z,0.60
2024-04-12T07:01:07.518Z,0.65
2024-04-12T07:02:07.301Z,0.68
2024-04-12T07:03:07.426Z,0.70
2024-04-12T07:04:07.565Z,0.70
2024-04-12T07:05:07.410Z,0.71
2024-04-12T07:06:07.570Z,0.71
2024-04-12T07:07:07.578Z,0.70
2024-04-12T07:08:07.602Z,0.70
2024-04-12T07:09:07.635Z,0.68
2024-04-12T07:10:07.776Z,0.73
2024-04-12T07:11:07.697Z,0.76
2024-04-12T07:12:07.741Z,0.74
2024-04-12T07:13:07.700Z,0.75
2024-04-12T07:14:07.729Z,0.75
2024-04-12T07:15:07.868Z,0.76
2024-04-12T07:16:07.759Z,0.72
2024-04-12T07:17:07.822Z,0.67
2024-04-12T07:18:35.581Z,0.66
2024-04-12T07:19:07.943Z,0.67
2024-04-12T07:23:49.466Z,0.66
2024-04-12T07:24:21.008Z,0.68
2024-04-12T07:25:20.875Z,0.81
2024-04-12T07:26:20.967Z,0.98
2024-04-12T07:27:20.907Z,1.13
2024-04-12T07:28:20.914Z,1.29
2024-04-12T07:29:20.888Z,1.19
2024-04-12T07:30:21.057Z,0.97
2024-04-12T07:31:20.917Z,0.83
2024-04-12T07:32:57.035Z,0.76
2024-04-12T07:33:21.056Z,0.77
2024-04-12T07:34:20.928Z,0.79
2024-04-12T07:35:20.914Z,0.81
2024-04-12T07:36:20.895Z,0.82
2024-04-12T07:37:20.934Z,0.85
2024-04-12T07:38:20.926Z,0.79
2024-04-12T07:39:20.926Z,0.72
2024-04-12T07:40:20.925Z,0.65
2024-04-12T07:41:20.898Z,0.64
2024-04-12T07:42:20.940Z,0.73
2024-04-12T07:43:21.453Z,0.80
2024-04-12T07:44:20.949Z,0.95
2024-04-12T07:45:20.930Z,1.00
2024-04-12T07:46:20.929Z,1.07
2024-04-12T07:47:20.987Z,1.07
2024-04-12T07:48:21.013Z,1.05
2024-04-12T07:49:20.925Z,1.07
2024-04-12T07:50:20.949Z,1.10
2024-04-12T07:51:20.963Z,1.13
2024-04-12T07:58:08.796Z,1.09
2024-04-12T09:07:43.260Z,0.50
2024-04-12T09:08:43.078Z,0.50
2024-04-12T09:09:44.450Z,0.50
2024-04-12T09:10:43.090Z,0.50
2024-04-12T09:11:43.264Z,0.50
2024-04-12T09:12:43.123Z,0.50
2024-04-12T09:13:43.086Z,0.50
2024-04-12T09:14:43.150Z,0.51
2024-04-12T09:15:43.180Z,0.50
2024-04-12T09:16:43.094Z,0.49
2024-04-12T09:17:43.349Z,0.50
2024-04-12T09:18:43.396Z,0.51
2024-04-12T09:19:43.253Z,0.52
2024-04-12T09:20:43.166Z,0.50
2024-04-12T09:21:43.103Z,0.48
2024-04-12T09:22:43.114Z,0.48
2024-04-12T09:23:43.176Z,0.51
2024-04-12T09:24:43.128Z,0.51
2024-04-12T09:25:43.162Z,0.50
2024-04-12T09:26:43.161Z,0.51
2024-04-12T09:27:43.258Z,0.53
2024-04-12T09:28:43.113Z,0.53
2024-04-12T09:29:43.175Z,0.50
2024-04-12T09:30:43.114Z,0.51
2024-04-12T09:31:43.123Z,0.52
2024-04-12T09:32:43.256Z,0.50
2024-04-12T09:33:43.289Z,0.50
2024-04-12T09:34:43.181Z,0.50
2024-04-12T09:35:43.153Z,0.55
2024-04-12T09:36:43.114Z,0.51
2024-04-12T09:37:43.137Z,0.51
2024-04-12T09:38:43.127Z,0.52
2024-04-12T09:39:43.195Z,0.54
2024-04-12T09:40:43.562Z,0.53
2024-04-12T09:41:43.228Z,0.57
2024-04-12T09:42:43.195Z,0.53
2024-04-12T09:43:43.360Z,0.61
2024-04-12T09:44:43.271Z,0.53
2024-04-12T09:45:43.330Z,0.49
2024-04-12T09:46:43.353Z,0.50
2024-04-12T09:47:43.483Z,0.50
2024-04-12T09:48:43.581Z,0.52
2024-04-12T09:49:43.552Z,0.54
2024-04-12T09:50:46.110Z,0.65
2024-04-12T09:51:43.635Z,0.69
2024-04-12T09:52:43.718Z,0.57
2024-04-12T09:53:43.575Z,0.54
2024-04-12T09:54:43.597Z,0.56
2024-04-12T09:55:43.595Z,0.54
2024-04-12T09:56:43.606Z,0.53
2024-04-12T09:57:43.611Z,0.51
2024-04-12T09:58:43.582Z,0.50
2024-04-12T09:59:44.278Z,0.51
2024-04-12T10:00:43.613Z,0.51
2024-04-12T10:01:43.595Z,0.50
2024-04-12T10:02:43.600Z,0.50
2024-04-12T10:03:43.743Z,0.50
2024-04-12T10:04:43.606Z,0.50
2024-04-12T10:05:44.997Z,0.53
2024-04-12T10:06:43.608Z,0.57
2024-04-12T10:07:43.625Z,0.70
2024-04-12T10:08:43.598Z,0.72
2024-04-12T10:09:43.601Z,0.67
2024-04-12T10:10:43.723Z,0.67
2024-04-12T10:11:43.654Z,0.61
2024-04-12T10:12:43.609Z,0.56
2024-04-12T10:13:44.299Z,0.53
2024-04-12T10:14:43.609Z,0.59
2024-04-12T10:15:43.618Z,0.70
2024-04-12T10:16:43.607Z,0.66
2024-04-12T10:17:43.718Z,0.62
2024-04-12T10:18:43.777Z,0.61
2024-04-12T10:19:43.600Z,0.57
2024-04-12T10:20:45.160Z,0.62
2024-04-12T10:21:43.642Z,0.69
2024-04-12T10:22:43.620Z,0.60
2024-04-12T10:23:43.660Z,0.64
2024-04-12T10:24:43.613Z,0.64
2024-04-12T10:25:43.651Z,0.73
2024-04-12T10:26:43.658Z,0.83
2024-04-12T10:27:43.746Z,0.86
2024-04-12T10:28:43.610Z,0.87
2024-04-12T10:29:43.631Z,0.92
2024-04-12T10:30:43.616Z,0.84
2024-04-12T10:31:43.626Z,1.04
2024-04-12T10:32:46.088Z,1.00
2024-04-12T10:33:43.754Z,1.00
2024-04-12T10:34:43.610Z,1.02
2024-04-12T10:35:43.634Z,1.06
2024-04-12T10:36:43.637Z,1.19
2024-04-12T10:37:43.622Z,1.41
2024-04-12T10:38:46.913Z,1.10
2024-04-12T10:39:43.655Z,0.93
2024-04-12T10:40:43.639Z,0.74
2024-04-12T10:41:43.686Z,0.66
2024-04-12T10:42:43.666Z,0.80
2024-04-12T10:43:43.620Z,1.07
2024-04-12T10:44:43.667Z,1.45
2024-04-12T10:45:44.616Z,1.93
2024-04-12T10:46:43.686Z,2.23
2024-04-12T10:47:43.733Z,1.99
2024-04-12T10:48:43.856Z,1.91
2024-04-12T10:49:43.779Z,1.86
2024-04-12T10:50:43.671Z,2.00
2024-04-12T10:51:43.668Z,2.09
2024-04-12T10:52:43.692Z,2.88
2024-04-12T10:53:43.672Z,3.10
2024-04-12T10:54:43.694Z,3.13
2024-04-12T10:55:43.651Z,3.33
2024-04-12T10:56:43.690Z,3.54
2024-04-12T10:57:43.682Z,3.77
2024-04-12T10:58:43.695Z,3.22
2024-04-12T10:59:43.790Z,3.56
2024-04-12T11:00:43.705Z,3.79
2024-04-12T11:01:43.706Z,4.03
2024-04-12T11:02:44.752Z,4.20
2024-04-12T11:03:43.776Z,4.01
2024-04-12T11:04:43.786Z,3.72
2024-04-12T11:05:43.696Z,3.30
2024-04-12T11:06:43.679Z,2.38
2024-04-12T11:07:43.683Z,2.14
2024-04-12T11:08:43.725Z,1.96
2024-04-12T11:09:43.749Z,1.65
2024-04-12T11:10:43.715Z,1.84
2024-04-12T11:11:43.727Z,1.51
2024-04-12T11:12:43.707Z,1.15
2024-04-12T11:13:43.693Z,0.88
2024-04-12T11:14:43.716Z,0.78
2024-04-12T11:15:43.687Z,0.70
2024-04-12T11:16:43.741Z,0.71
2024-04-12T11:17:43.781Z,0.63
2024-04-12T11:18:43.963Z,0.59
2024-04-12T11:19:43.724Z,0.49
2024-04-12T11:20:43.721Z,0.50
2024-04-12T11:21:43.688Z,0.50
2024-04-12T11:22:43.752Z,0.53
2024-04-12T11:23:43.725Z,0.50
2024-04-12T11:24:43.705Z,0.53
2024-04-12T11:25:43.707Z,0.51
2024-04-12T11:26:43.733Z,0.52
2024-04-12T11:27:43.711Z,0.50
2024-04-12T11:28:43.720Z,0.55
2024-04-12T11:29:43.725Z,0.51
2024-04-12T11:30:43.805Z,0.52
2024-04-12T11:31:43.708Z,0.50
2024-04-12T11:32:43.897Z,0.53
2024-04-12T11:33:48.376Z,0.51
2024-04-12T11:34:44.775Z,0.51
2024-04-12T11:35:43.777Z,0.52
2024-04-12T11:36:43.835Z,0.58
2024-04-12T11:37:46.829Z,0.73
2024-04-12T11:38:43.812Z,0.52
2024-04-12T11:39:43.731Z,0.58
2024-04-12T11:40:43.735Z,0.76
2024-04-12T11:41:43.790Z,1.03
2024-04-12T11:42:43.776Z,1.50
2024-04-12T11:43:43.738Z,1.32
2024-04-12T11:44:43.744Z,0.98
2024-04-12T11:45:44.667Z,0.99
2024-04-12T11:46:43.734Z,0.87
2024-04-12T11:47:43.862Z,0.87
2024-04-12T11:48:43.779Z,0.83
2024-04-12T11:49:43.732Z,0.80
2024-04-12T11:50:43.804Z,0.66
2024-04-12T11:51:43.735Z,0.57
2024-04-12T11:52:43.760Z,0.50
2024-04-12T11:53:43.796Z,0.50
2024-04-12T11:54:43.829Z,0.51
2024-04-12T11:55:43.864Z,0.47
2024-04-12T11:56:43.902Z,0.42
2024-04-12T11:57:43.916Z,0.41
2024-04-12T11:58:43.983Z,0.47
2024-04-12T11:59:44.090Z,0.54
2024-04-12T12:00:44.231Z,0.62
2024-04-12T12:01:44.119Z,0.58
2024-04-12T12:02:44.820Z,0.48
2024-04-12T12:03:44.218Z,0.49
2024-04-12T12:04:44.170Z,0.48
2024-04-12T12:05:44.264Z,0.50
2024-04-12T12:06:44.259Z,0.50
2024-04-12T12:07:44.304Z,0.56
2024-04-12T12:08:44.432Z,0.52
2024-04-12T12:09:44.382Z,0.65
2024-04-12T12:10:44.455Z,0.73
2024-04-12T12:11:44.631Z,0.72
2024-04-12T12:12:44.625Z,0.66
2024-04-12T12:13:44.551Z,0.55
2024-04-12T12:14:44.594Z,0.50
2024-04-12T12:15:44.618Z,0.50
2024-04-12T12:16:44.665Z,0.51
2024-04-12T12:17:44.830Z,0.50
2024-04-12T12:18:44.872Z,0.50
2024-04-12T12:19:44.744Z,0.51
2024-04-12T12:20:44.826Z,0.52
2024-04-12T12:21:44.838Z,0.62
2024-04-12T12:22:44.914Z,0.73
2024-04-12T12:23:44.924Z,0.64
2024-04-12T12:24:44.966Z,0.87
2024-04-12T12:25:44.995Z,0.96
2024-04-12T12:26:45.090Z,0.87
2024-04-12T12:27:45.116Z,0.84
2024-04-12T12:28:45.171Z,0.82
2024-04-12T12:29:45.246Z,0.92
2024-04-12T12:30:45.262Z,0.66
2024-04-12T12:31:45.276Z,0.56
2024-04-12T12:32:45.417Z,0.52
2024-04-12T12:33:45.402Z,0.50
2024-04-12T12:34:45.394Z,0.52
2024-04-12T12:35:45.467Z,0.64
2024-04-12T12:36:45.489Z,0.60
2024-04-12T12:37:45.518Z,0.54
2024-04-12T12:38:45.569Z,0.50
2024-04-12T12:39:45.570Z,0.49
2024-04-12T12:40:45.639Z,0.50
2024-04-12T12:41:45.737Z,0.56
2024-04-12T12:42:45.736Z,0.51
2024-04-12T12:43:46.131Z,0.50
2024-04-12T12:44:45.847Z,0.53
2024-04-12T12:45:45.866Z,0.57
2024-04-12T12:46:45.886Z,0.57
2024-04-12T12:47:45.973Z,0.59
2024-04-12T12:48:46.116Z,0.57
2024-04-12T12:49:46.003Z,0.65
2024-04-12T12:50:46.031Z,0.66
2024-04-12T12:51:46.104Z,0.75
2024-04-12T12:52:47.863Z,0.76
2024-04-12T12:53:46.176Z,0.72
2024-04-12T12:54:46.267Z,0.71
2024-04-12T12:55:46.291Z,0.73
2024-04-12T12:56:46.366Z,0.72
2024-04-12T12:57:46.390Z,0.67
2024-04-12T12:58:46.384Z,0.60
2024-04-12T12:59:46.521Z,0.58
2024-04-12T13:00:46.827Z,0.56
2024-04-12T13:01:46.518Z,0.52
2024-04-12T13:02:46.628Z,0.53
2024-04-12T13:03:46.665Z,0.49
2024-04-12T13:04:46.724Z,0.51
2024-04-12T13:05:46.749Z,0.52
2024-04-12T13:06:46.778Z,0.51
2024-04-12T13:07:46.900Z,0.50
2024-04-12T13:08:46.864Z,0.53
2024-04-12T13:09:46.862Z,0.53
2024-04-12T13:10:46.899Z,0.53
2024-04-12T13:11:46.926Z,0.49
2024-04-12T13:12:46.995Z,0.54
2024-04-12T13:13:47.016Z,0.60
2024-04-12T13:14:47.106Z,0.68
2024-04-12T13:15:47.079Z,0.66
2024-04-12T13:16:47.111Z,0.65
2024-04-12T13:17:52.296Z,0.56
2024-04-12T13:18:47.572Z,0.56
2024-04-12T13:19:47.161Z,0.56
2024-04-12T13:20:47.235Z,0.59
2024-04-12T13:21:47.169Z,0.63
2024-04-12T13:22:47.169Z,0.64
2024-04-12T13:23:47.196Z,0.67
2024-04-12T13:24:47.248Z,0.69
2024-04-12T13:25:47.297Z,0.70
2024-04-12T13:26:47.359Z,0.70
2024-04-12T13:27:47.364Z,0.79
2024-04-12T13:28:47.380Z,0.84
2024-04-12T13:29:47.463Z,0.73
2024-04-12T13:30:47.485Z,0.71
2024-04-12T13:31:47.505Z,0.64
2024-04-12T13:32:47.645Z,0.70
2024-04-12T13:33:47.607Z,0.67
2024-04-12T13:34:47.633Z,0.62
2024-04-12T13:35:47.725Z,0.61
2024-04-12T13:36:47.682Z,0.65
2024-04-12T13:37:55.377Z,0.50
2024-04-12T13:38:55.423Z,0.50
2024-04-12T13:39:55.372Z,0.50
2024-04-12T13:40:55.374Z,0.50
2024-04-12T13:47:48.402Z,0.50
2024-04-12T13:48:17.185Z,0.50
2024-04-12T13:49:17.118Z,0.50
2024-04-12T13:50:17.124Z,0.50
2024-04-12T13:51:17.202Z,0.50
2024-04-12T13:52:17.138Z,0.50
2024-04-12T13:53:18.524Z,0.49
2024-04-12T13:54:17.295Z,0.50
2024-04-12T13:55:17.301Z,0.50
2024-04-12T14:08:51.677Z,0.18
2024-04-12T14:09:21.979Z,0.51
2024-04-12T14:10:19.298Z,0.55
2024-04-12T14:11:19.335Z,0.73
2024-04-12T14:12:19.431Z,1.06
2024-04-12T14:13:19.353Z,1.52
2024-04-12T14:14:19.292Z,2.18
2024-04-12T14:15:22.426Z,1.73
2024-04-12T14:16:20.402Z,1.71
2024-04-12T14:17:19.303Z,1.63
2024-04-12T14:18:19.411Z,1.40
2024-04-12T14:19:19.919Z,1.13
2024-04-12T14:20:19.313Z,0.97
2024-04-12T14:21:21.975Z,0.82
2024-04-12T14:22:19.297Z,0.82
2024-04-12T14:23:19.328Z,0.82
2024-04-12T14:24:19.348Z,0.85
2024-04-12T14:25:19.303Z,0.85
2024-04-12T14:26:19.321Z,0.80
2024-04-12T14:27:23.059Z,0.77
2024-04-12T14:28:20.335Z,0.72
2024-04-12T14:29:19.362Z,0.64
2024-04-12T14:30:19.438Z,0.60
2024-04-12T14:31:19.349Z,0.55
2024-04-12T14:32:19.379Z,0.53
2024-04-12T14:33:22.358Z,0.58
2024-04-12T14:34:20.367Z,0.56
2024-04-12T14:35:19.332Z,0.52
2024-04-12T14:50:52.904Z,0.16
2024-04-12T14:51:15.980Z,0.58
2024-04-12T14:52:16.470Z,0.70
2024-04-12T14:53:15.864Z,0.95
2024-04-12T14:54:15.913Z,1.31
2024-04-12T14:55:15.891Z,1.76
2024-04-12T14:56:15.841Z,1.82
2024-04-12T14:57:16.004Z,1.51
2024-04-12T14:58:15.884Z,1.47
2024-04-12T14:59:15.899Z,1.29
2024-04-12T15:00:16.058Z,1.19
2024-04-12T15:01:15.949Z,1.05
2024-04-12T15:02:15.882Z,0.88
2024-04-12T15:03:15.991Z,0.80
2024-04-12T15:04:15.885Z,0.79
2024-04-12T15:05:15.933Z,0.79
2024-04-12T15:06:15.980Z,0.78
2024-04-12T15:07:15.883Z,0.76
2024-04-12T15:08:15.895Z,0.78